Algonac, Michigan
Current Conditions -  °F | °C
As of 6:55 PM on Friday 21 Nov 2014 (Local Time) from KMTC Reporting Station
Clear Clear  
Wind Chill: 12°   Ceiling: Unl
Heat Index: 21°   Visibility: 12mi
Dew Point: 13°   Wind: 7mph
Humidity: 71%   Direction: 190°S
Pressure: 30.4"   Gusts: NA
Location:  42.62°N, 82.53°W
Report Text: KMTC 212355Z 19006KT 12SM CLR M06/M11 A3040 RMK SLP311 4/002 T10631108 11032 21063 58005
Loading
Personal Weather Stations






























Interactive Weather Map New forecast layout! Learn more

10-Day Weather Forecast

Advertisements
Track Severe Weather on mobile